Time;durP1;ratioP1;P1;durP2;ratioP2;P2;SDS_P1;SDS_P2;PMS_P1;PMS_P2;Temp;Humidity;BMP_temperature;BMP_pressure;BME280_temperature;BME280_humidity;BME280_pressure;Samples;Min_cycle;Max_cycle;Signal;HPM_P1;HPM_P2
2023/08/16 00:01:16;;;;;;;5.95;4.18;;;21.00;99.90;;;;;;4956132;28;20188;-29
2023/08/16 00:03:43;;;;;;;5.88;3.95;;;21.00;99.90;;;;;;4965096;28;20274;-29
2023/08/16 00:06:14;;;;;;;5.70;3.40;;;21.10;99.90;;;;;;4975617;28;20211;-29
2023/08/16 00:08:41;;;;;;;7.20;3.83;;;21.10;99.90;;;;;;4957430;28;20254;-29
2023/08/16 00:11:09;;;;;;;3.92;3.42;;;21.20;99.90;;;;;;4961743;28;20249;-30
2023/08/16 00:13:36;;;;;;;3.53;3.22;;;21.30;99.90;;;;;;4972757;28;20182;-29
2023/08/16 00:16:03;;;;;;;6.57;3.67;;;21.30;99.90;;;;;;4968540;28;20223;-30
2023/08/16 00:18:30;;;;;;;5.43;3.30;;;21.30;99.90;;;;;;4986944;28;20222;-29
2023/08/16 00:20:58;;;;;;;3.90;3.60;;;21.40;99.90;;;;;;4971702;28;20204;-29
2023/08/16 00:23:25;;;;;;;4.03;3.60;;;21.30;99.90;;;;;;4956489;28;20191;-29
2023/08/16 00:25:56;;;;;;;4.85;3.70;;;21.40;99.90;;;;;;4972267;28;20239;-29
2023/08/16 00:28:23;;;;;;;4.35;3.95;;;21.30;99.90;;;;;;4962153;28;20177;-29
2023/08/16 00:30:56;;;;;;;4.07;3.20;;;21.20;99.90;;;;;;4964431;28;20201;-29
2023/08/16 00:33:22;;;;;;;4.18;3.72;;;21.10;99.90;;;;;;4971601;28;20211;-30
2023/08/16 00:35:49;;;;;;;4.18;3.78;;;21.10;99.90;;;;;;4955256;28;20224;-29
2023/08/16 00:38:15;;;;;;;4.72;4.20;;;21.10;99.90;;;;;;4954799;28;20212;-29
2023/08/16 00:40:47;;;;;;;6.72;3.67;;;21.10;99.90;;;;;;4959263;28;20188;-32
2023/08/16 00:43:13;;;;;;;4.63;4.10;;;21.10;99.90;;;;;;4961410;28;20184;-29
2023/08/16 00:45:39;;;;;;;4.13;3.72;;;21.10;99.90;;;;;;4958961;28;20208;-30
2023/08/16 00:48:07;;;;;;;4.53;4.13;;;21.10;99.90;;;;;;4965619;28;20175;-29
2023/08/16 00:50:33;;;;;;;3.97;3.67;;;21.10;99.90;;;;;;4957771;28;20230;-30
2023/08/16 00:53:00;;;;;;;4.57;4.07;;;21.00;99.90;;;;;;4955743;28;20180;-29
2023/08/16 00:55:26;;;;;;;4.40;4.00;;;20.90;99.90;;;;;;4958313;28;20287;-29
2023/08/16 00:57:53;;;;;;;6.70;4.50;;;20.90;99.90;;;;;;4961696;28;20183;-28
2023/08/16 01:00:20;;;;;;;5.07;4.18;;;20.80;99.90;;;;;;4960330;28;20184;-29
2023/08/16 01:02:46;;;;;;;6.18;4.00;;;20.80;99.90;;;;;;4952184;28;20188;-29
2023/08/16 01:05:12;;;;;;;4.70;4.18;;;20.80;99.90;;;;;;4958141;28;20242;-29
2023/08/16 01:07:38;;;;;;;5.38;3.90;;;20.70;99.90;;;;;;4958509;28;20180;-29
2023/08/16 01:10:04;;;;;;;4.80;4.20;;;20.70;99.90;;;;;;4960252;28;20172;-29
2023/08/16 01:12:36;;;;;;;5.22;3.97;;;20.60;99.90;;;;;;4954076;28;20179;-29
2023/08/16 01:15:06;;;;;;;6.80;4.25;;;20.60;99.90;;;;;;4958531;28;20230;-29
2023/08/16 01:17:32;;;;;;;5.10;4.32;;;20.60;99.90;;;;;;4959358;28;20184;-29
2023/08/16 01:20:00;;;;;;;6.60;3.97;;;20.50;99.90;;;;;;4950001;28;20184;-29
2023/08/16 01:23:03;;;;;;;7.18;4.43;;;20.50;99.90;;;;;;4957546;28;20198;-29
2023/08/16 01:25:32;;;;;;;5.75;5.07;;;20.40;99.90;;;;;;4956320;28;20239;-29
2023/08/16 01:27:59;;;;;;;4.93;4.20;;;20.20;99.90;;;;;;4957237;28;20176;-29
2023/08/16 01:30:27;;;;;;;7.35;4.32;;;20.10;99.90;;;;;;4952996;28;20195;-29
2023/08/16 01:32:52;;;;;;;4.20;3.80;;;20.10;99.90;;;;;;4953117;28;20177;-29
2023/08/16 01:35:18;;;;;;;5.57;4.25;;;20.10;99.90;;;;;;4958909;28;20653;-29
2023/08/16 01:37:44;;;;;;;5.45;4.45;;;20.00;99.90;;;;;;4959047;28;20184;-29
2023/08/16 01:40:11;;;;;;;5.07;4.57;;;20.00;99.90;;;;;;4958014;28;20180;-28
2023/08/16 01:42:47;;;;;;;4.35;3.88;;;20.00;99.90;;;;;;4957234;28;20188;-29
2023/08/16 01:45:17;;;;;;;5.88;4.30;;;20.10;99.90;;;;;;4955983;28;20214;-29
2023/08/16 01:47:44;;;;;;;4.43;4.03;;;20.10;99.90;;;;;;4958889;28;20188;-28
2023/08/16 01:50:10;;;;;;;7.68;4.20;;;20.10;99.90;;;;;;4953069;28;20199;-29
2023/08/16 01:52:37;;;;;;;4.93;4.53;;;20.10;99.90;;;;;;4952678;28;20203;-28
2023/08/16 01:55:04;;;;;;;7.28;4.40;;;20.00;99.90;;;;;;4958165;28;20670;-28
2023/08/16 01:57:30;;;;;;;4.60;4.20;;;20.00;99.90;;;;;;4953273;28;20208;-28
2023/08/16 01:59:56;;;;;;;5.53;4.22;;;19.90;99.90;;;;;;4957223;28;20180;-29
2023/08/16 02:02:24;;;;;;;4.20;3.80;;;20.00;99.90;;;;;;4957781;28;20184;-28
2023/08/16 02:04:50;;;;;;;4.47;4.07;;;19.90;99.90;;;;;;4957867;28;20216;-29
2023/08/16 02:07:15;;;;;;;5.13;4.10;;;19.90;99.90;;;;;;4957799;28;20187;-29
2023/08/16 02:09:41;;;;;;;5.10;4.60;;;19.90;99.90;;;;;;4958143;28;20188;-29
2023/08/16 02:12:07;;;;;;;5.22;4.28;;;19.90;99.90;;;;;;4958117;28;20180;-29
2023/08/16 02:14:33;;;;;;;5.43;4.25;;;19.80;99.90;;;;;;4957958;28;20183;-29
2023/08/16 02:17:00;;;;;;;4.85;4.45;;;19.80;99.90;;;;;;4957176;28;20184;-29
2023/08/16 02:19:26;;;;;;;4.43;3.97;;;19.90;99.90;;;;;;4975354;28;20701;-29
2023/08/16 02:21:51;;;;;;;6.60;4.45;;;19.90;99.90;;;;;;4971116;28;20200;-29
2023/08/16 02:24:18;;;;;;;5.13;4.38;;;19.90;99.90;;;;;;4957052;28;20184;-29
2023/08/16 02:26:47;;;;;;;4.60;4.20;;;19.90;99.90;;;;;;4971682;28;20195;-28
2023/08/16 02:29:12;;;;;;;5.43;4.63;;;19.90;99.90;;;;;;4957923;28;20191;-29
2023/08/16 02:31:38;;;;;;;5.05;3.95;;;20.00;99.90;;;;;;4957894;28;20172;-29
2023/08/16 02:34:04;;;;;;;7.65;4.95;;;19.90;99.90;;;;;;4957204;28;20176;-29
2023/08/16 02:36:30;;;;;;;5.10;4.60;;;19.90;99.90;;;;;;4971679;28;20243;-29
2023/08/16 02:38:56;;;;;;;7.28;5.18;;;19.90;99.90;;;;;;4957770;28;20180;-29
2023/08/16 02:41:23;;;;;;;5.70;4.80;;;19.80;99.90;;;;;;4953592;28;20188;-28
2023/08/16 02:43:49;;;;;;;4.65;4.25;;;19.80;99.90;;;;;;4957765;28;20188;-28
2023/08/16 02:46:14;;;;;;;6.32;4.57;;;19.70;99.90;;;;;;4957273;28;20219;-29
2023/08/16 02:48:40;;;;;;;6.28;5.68;;;19.70;99.90;;;;;;4957323;28;20184;-29
2023/08/16 02:51:06;;;;;;;6.63;5.03;;;19.60;99.90;;;;;;4955359;28;20234;-29
2023/08/16 02:53:32;;;;;;;5.25;4.75;;;19.50;99.90;;;;;;4956705;28;20226;-29
2023/08/16 02:55:58;;;;;;;6.28;4.70;;;19.60;99.90;;;;;;4950751;28;20271;-29
2023/08/16 02:58:23;;;;;;;6.22;4.45;;;19.60;99.90;;;;;;4961576;28;20204;-30
2023/08/16 03:00:53;;;;;;;5.78;4.68;;;19.50;99.90;;;;;;4958613;28;20185;-28
2023/08/16 03:03:22;;;;;;;5.57;4.68;;;19.50;99.90;;;;;;4954140;28;20188;-31
2023/08/16 03:05:49;;;;;;;5.53;4.55;;;19.50;99.90;;;;;;4964677;28;20208;-28
2023/08/16 03:08:15;;;;;;;5.10;4.65;;;19.50;99.90;;;;;;4959291;28;20176;-28
2023/08/16 03:10:40;;;;;;;6.10;3.97;;;19.50;99.90;;;;;;4953042;28;20217;-29
2023/08/16 03:13:06;;;;;;;4.30;3.90;;;19.40;99.90;;;;;;4957352;28;20176;-29
2023/08/16 03:15:33;;;;;;;6.15;4.80;;;19.40;99.90;;;;;;4958010;28;20203;-28
2023/08/16 03:17:59;;;;;;;5.38;4.55;;;19.30;99.90;;;;;;4955621;28;20234;-28
2023/08/16 03:20:25;;;;;;;7.65;5.32;;;19.30;99.90;;;;;;4972911;28;20227;-29
2023/08/16 03:22:50;;;;;;;6.47;5.50;;;19.30;99.90;;;;;;4955888;28;20264;-29
2023/08/16 03:25:18;;;;;;;5.57;4.97;;;19.20;99.90;;;;;;4964663;23;20373;-28
2023/08/16 03:27:44;;;;;;;6.38;4.70;;;19.20;99.90;;;;;;4991888;28;20210;-28
2023/08/16 03:30:10;;;;;;;6.07;4.75;;;19.20;99.90;;;;;;4977916;28;20174;-29
2023/08/16 03:32:38;;;;;;;4.90;3.85;;;19.20;99.90;;;;;;4982076;28;20175;-30
2023/08/16 03:35:05;;;;;;;4.38;3.97;;;19.20;99.90;;;;;;4983299;28;20251;-29
2023/08/16 03:37:31;;;;;;;5.10;4.53;;;19.20;99.90;;;;;;4986982;28;20650;-29
2023/08/16 03:39:58;;;;;;;6.05;4.25;;;19.20;99.90;;;;;;4992644;28;20183;-29
2023/08/16 03:42:23;;;;;;;8.40;4.85;;;19.20;99.90;;;;;;4998998;28;20222;-29
2023/08/16 03:44:49;;;;;;;4.93;4.38;;;19.10;99.90;;;;;;4996499;28;20202;-30
2023/08/16 03:47:15;;;;;;;6.07;4.60;;;19.10;99.90;;;;;;4980211;28;20708;-29
2023/08/16 03:49:44;;;;;;;5.25;4.75;;;19.00;99.90;;;;;;4978972;28;20172;-28
2023/08/16 03:52:10;;;;;;;6.63;4.78;;;19.10;99.90;;;;;;4996476;28;20179;-30
2023/08/16 03:54:35;;;;;;;6.28;4.63;;;19.10;99.90;;;;;;4994890;28;20183;-29
2023/08/16 03:57:02;;;;;;;6.95;4.32;;;19.10;99.90;;;;;;5012286;28;20191;-29
2023/08/16 03:59:27;;;;;;;4.68;4.28;;;19.10;99.90;;;;;;4995376;28;20183;-30
2023/08/16 04:01:53;;;;;;;5.47;4.38;;;19.10;99.90;;;;;;4985802;28;20190;-30
2023/08/16 04:04:19;;;;;;;7.53;4.75;;;19.10;99.90;;;;;;4980964;28;20187;-29
2023/08/16 04:06:45;;;;;;;4.80;4.25;;;19.10;99.90;;;;;;4996260;28;20206;-30
2023/08/16 04:09:11;;;;;;;6.05;4.35;;;19.10;99.90;;;;;;4997296;28;20182;-29
2023/08/16 04:11:37;;;;;;;7.72;4.35;;;19.10;99.90;;;;;;4978453;28;20183;-29
2023/08/16 04:14:03;;;;;;;4.97;4.47;;;19.20;99.90;;;;;;5004143;28;20179;-29
2023/08/16 04:16:28;;;;;;;4.43;4.03;;;19.20;99.90;;;;;;4998042;28;20206;-30
2023/08/16 04:18:54;;;;;;;8.88;4.93;;;19.20;99.90;;;;;;4988488;28;20182;-30
2023/08/16 04:21:21;;;;;;;5.25;4.40;;;19.20;99.90;;;;;;4982987;28;20262;-29
2023/08/16 04:23:49;;;;;;;4.72;4.32;;;19.30;99.90;;;;;;5001225;28;20301;-29
2023/08/16 04:26:15;;;;;;;4.68;4.28;;;19.30;99.90;;;;;;4974619;28;20299;-29
2023/08/16 04:28:41;;;;;;;6.10;4.68;;;19.30;99.90;;;;;;4992342;28;20191;-29
2023/08/16 04:31:06;;;;;;;4.57;4.18;;;19.30;99.90;;;;;;4975863;28;20184;-29
2023/08/16 04:33:33;;;;;;;5.38;4.88;;;19.30;99.90;;;;;;4975072;28;20183;-29
2023/08/16 04:36:01;;;;;;;5.40;4.18;;;19.30;99.90;;;;;;4988288;28;20203;-29
2023/08/16 04:38:29;;;;;;;5.45;4.45;;;19.40;99.90;;;;;;4990530;28;20192;-31
2023/08/16 04:41:06;;;;;;;6.97;4.65;;;19.40;99.90;;;;;;4972927;28;20186;-29
2023/08/16 04:43:38;;;;;;;5.47;4.90;;;19.40;99.90;;;;;;4990830;28;20262;-29
2023/08/16 04:46:06;;;;;;;6.15;4.70;;;19.30;99.90;;;;;;4975145;28;20324;-28
2023/08/16 04:48:35;;;;;;;6.90;4.10;;;19.30;99.90;;;;;;4974265;28;20176;-30
2023/08/16 04:51:04;;;;;;;6.18;4.47;;;19.30;99.90;;;;;;4982195;28;20186;-30
2023/08/16 04:53:33;;;;;;;6.10;4.82;;;19.30;99.90;;;;;;4993109;28;20200;-29
2023/08/16 04:55:59;;;;;;;5.82;4.72;;;19.30;99.90;;;;;;4992654;28;20200;-30
2023/08/16 04:58:25;;;;;;;5.20;4.65;;;19.30;99.90;;;;;;4975094;28;20181;-29
2023/08/16 05:00:52;;;;;;;6.18;4.60;;;19.40;99.90;;;;;;4991034;28;20180;-29
2023/08/16 05:03:18;;;;;;;6.15;5.00;;;19.40;99.90;;;;;;4991305;28;20188;-29
2023/08/16 05:05:44;;;;;;;7.78;5.40;;;19.30;99.90;;;;;;4982945;28;20211;-29
2023/08/16 05:08:10;;;;;;;6.85;4.93;;;19.40;99.90;;;;;;4981685;28;20214;-29
2023/08/16 05:10:37;;;;;;;7.57;5.43;;;19.40;99.90;;;;;;4979766;28;20176;-30
2023/08/16 05:13:03;;;;;;;7.10;5.07;;;19.50;99.90;;;;;;4991527;28;20175;-29
2023/08/16 05:15:29;;;;;;;5.18;4.68;;;19.50;99.90;;;;;;4979647;28;20199;-29
2023/08/16 05:17:55;;;;;;;6.88;4.97;;;19.50;99.90;;;;;;4991758;28;20295;-29
2023/08/16 05:20:22;;;;;;;6.15;4.97;;;19.60;99.90;;;;;;4979715;28;20215;-29
2023/08/16 05:22:47;;;;;;;5.72;5.22;;;19.60;99.90;;;;;;4991383;28;20220;-30
2023/08/16 05:25:13;;;;;;;5.45;4.78;;;19.70;99.90;;;;;;4980954;28;20307;-29
2023/08/16 05:27:39;;;;;;;5.93;5.03;;;19.70;99.90;;;;;;4982443;28;20179;-29
2023/08/16 05:30:06;;;;;;;6.40;5.40;;;19.80;99.90;;;;;;4991485;28;20176;-29
2023/08/16 05:32:33;;;;;;;7.13;5.20;;;19.90;99.90;;;;;;5000690;28;20176;-29
2023/08/16 05:34:59;;;;;;;7.30;4.72;;;19.90;99.90;;;;;;4985649;28;20191;-29
2023/08/16 05:37:25;;;;;;;6.30;5.35;;;20.00;99.90;;;;;;4996071;28;20187;-29
2023/08/16 05:39:50;;;;;;;6.03;5.07;;;20.00;99.90;;;;;;4983463;28;20211;-30
2023/08/16 05:42:17;;;;;;;5.10;4.70;;;20.10;99.90;;;;;;5004987;28;20179;-29
2023/08/16 05:44:43;;;;;;;5.20;4.70;;;20.10;99.90;;;;;;5000721;28;20226;-30
2023/08/16 05:47:09;;;;;;;5.85;4.60;;;20.20;99.90;;;;;;4999281;28;20195;-30
2023/08/16 05:49:37;;;;;;;8.73;5.47;;;20.20;99.90;;;;;;4994609;28;20262;-30
2023/08/16 05:52:05;;;;;;;4.97;4.57;;;20.30;99.90;;;;;;4994783;28;20188;-30
2023/08/16 05:54:31;;;;;;;5.45;4.70;;;20.40;99.90;;;;;;4979619;28;20251;-30
2023/08/16 05:57:00;;;;;;;5.20;4.70;;;20.50;99.90;;;;;;4984253;28;20210;-31
2023/08/16 05:59:27;;;;;;;5.50;5.03;;;20.50;99.90;;;;;;4987462;28;20187;-29
2023/08/16 06:01:54;;;;;;;5.20;4.80;;;20.60;99.90;;;;;;4986803;28;20191;-30
2023/08/16 06:04:20;;;;;;;4.63;4.22;;;20.60;99.90;;;;;;4987830;28;20191;-30
2023/08/16 06:06:47;;;;;;;7.05;5.25;;;20.70;99.90;;;;;;4985626;28;20210;-30
2023/08/16 06:09:16;;;;;;;6.97;5.28;;;20.80;99.90;;;;;;4997363;28;20269;-29
2023/08/16 06:11:42;;;;;;;5.80;5.20;;;20.90;99.90;;;;;;4978430;28;20191;-30
2023/08/16 06:14:07;;;;;;;6.05;5.45;;;21.00;99.90;;;;;;4980455;28;20239;-29
2023/08/16 06:16:35;;;;;;;6.97;5.68;;;21.10;99.90;;;;;;4986201;28;20207;-29
2023/08/16 06:19:04;;;;;;;8.57;5.22;;;21.10;99.90;;;;;;4988606;28;20180;-32
2023/08/16 06:21:34;;;;;;;5.90;4.85;;;21.20;99.90;;;;;;4977682;28;20282;-29
2023/08/16 06:24:00;;;;;;;5.40;4.50;;;21.30;99.90;;;;;;4979874;28;20249;-29
2023/08/16 06:26:26;;;;;;;6.47;4.82;;;21.40;99.90;;;;;;4985586;28;20220;-29
2023/08/16 06:28:52;;;;;;;6.25;4.82;;;21.60;99.90;;;;;;4977333;28;20239;-29
2023/08/16 06:31:17;;;;;;;5.07;4.50;;;21.60;99.90;;;;;;4975588;28;20267;-30
2023/08/16 06:33:43;;;;;;;5.30;4.55;;;21.80;99.90;;;;;;4977565;28;20183;-30
2023/08/16 06:36:10;;;;;;;4.97;4.00;;;21.80;99.90;;;;;;4977646;28;20208;-30
2023/08/16 06:38:36;;;;;;;5.25;4.50;;;21.90;99.90;;;;;;4964656;28;20191;-29
2023/08/16 06:41:02;;;;;;;5.00;4.38;;;22.10;99.90;;;;;;4955548;28;20259;-30
2023/08/16 06:43:28;;;;;;;7.60;5.05;;;22.20;99.90;;;;;;4974614;28;20187;-29
2023/08/16 06:45:57;;;;;;;5.80;5.18;;;22.10;99.90;;;;;;4996971;28;20216;-28
2023/08/16 06:48:22;;;;;;;7.15;4.97;;;22.20;99.90;;;;;;4963347;28;20200;-30
2023/08/16 06:50:48;;;;;;;5.30;4.72;;;22.30;99.90;;;;;;4957628;28;20216;-30
2023/08/16 06:53:15;;;;;;;5.97;4.68;;;22.40;99.90;;;;;;4970958;28;20244;-30
2023/08/16 06:55:40;;;;;;;5.72;4.75;;;22.50;99.90;;;;;;4954951;28;20211;-30
2023/08/16 06:58:07;;;;;;;5.28;4.57;;;22.60;99.90;;;;;;4959654;28;20207;-30
2023/08/16 07:00:34;;;;;;;8.02;4.85;;;22.80;99.90;;;;;;4981419;28;20187;-29
2023/08/16 07:03:05;;;;;;;5.38;4.75;;;22.80;99.90;;;;;;4969492;28;20214;-29
2023/08/16 07:05:38;;;;;;;6.43;4.25;;;22.80;99.90;;;;;;4979235;28;20211;-31
2023/08/16 07:08:09;;;;;;;4.90;4.35;;;22.90;99.90;;;;;;4976782;28;20274;-31
2023/08/16 07:10:35;;;;;;;5.40;4.50;;;23.00;99.90;;;;;;4975033;28;20184;-31
2023/08/16 07:13:02;;;;;;;6.50;5.03;;;23.10;99.90;;;;;;4988251;28;20199;-30
2023/08/16 07:15:28;;;;;;;7.30;5.07;;;23.10;99.90;;;;;;4959185;28;20207;-30
2023/08/16 07:17:55;;;;;;;5.70;5.07;;;23.10;99.90;;;;;;4979646;28;20229;-28
2023/08/16 07:20:21;;;;;;;6.60;4.85;;;23.20;99.90;;;;;;4981675;28;20176;-30
2023/08/16 07:22:47;;;;;;;6.65;5.05;;;23.30;99.90;;;;;;4963072;28;20184;-30
2023/08/16 07:25:13;;;;;;;4.68;4.28;;;23.30;99.90;;;;;;4998602;28;20293;-30
2023/08/16 07:27:39;;;;;;;5.13;4.63;;;23.40;99.90;;;;;;4976565;28;20187;-29
2023/08/16 07:30:06;;;;;;;5.18;4.20;;;23.30;99.90;;;;;;4972548;28;20187;-31
2023/08/16 07:32:32;;;;;;;6.72;4.50;;;23.30;99.90;;;;;;4995586;28;20270;-30
2023/08/16 07:34:59;;;;;;;4.97;4.47;;;23.30;99.90;;;;;;4995772;28;20216;-30
2023/08/16 07:37:31;;;;;;;6.38;4.60;;;23.40;99.90;;;;;;5011236;28;20194;-29
2023/08/16 07:40:01;;;;;;;6.03;4.47;;;23.50;99.90;;;;;;4970057;28;20183;-29
2023/08/16 07:42:27;;;;;;;5.68;4.70;;;23.60;99.90;;;;;;4983864;28;20182;-29
2023/08/16 07:44:53;;;;;;;5.82;5.05;;;23.70;99.90;;;;;;4992585;28;20245;-29
2023/08/16 07:50:49;;;;;;;6.15;5.47;;;23.90;99.90;;;;;;4937312;28;20186;-30
2023/08/16 07:53:15;;;;;;;6.85;4.85;;;23.90;99.90;;;;;;4976131;28;20269;-31
2023/08/16 07:55:41;;;;;;;6.65;5.95;;;24.10;99.90;;;;;;4990639;28;20203;-30
2023/08/16 07:58:07;;;;;;;5.95;4.90;;;24.10;99.90;;;;;;4991064;28;20183;-30
2023/08/16 08:00:35;;;;;;;6.88;5.82;;;24.30;99.90;;;;;;4994882;28;20209;-29
2023/08/16 08:03:01;;;;;;;5.53;5.00;;;24.40;99.90;;;;;;4993037;28;20178;-30
2023/08/16 08:05:27;;;;;;;6.45;4.78;;;24.50;99.90;;;;;;4978117;28;20214;-30
2023/08/16 08:07:53;;;;;;;7.15;5.85;;;24.60;99.90;;;;;;4994851;28;20191;-29
2023/08/16 08:10:19;;;;;;;5.40;4.80;;;24.70;99.90;;;;;;5002204;28;20318;-29
2023/08/16 08:12:46;;;;;;;5.38;4.88;;;24.90;99.90;;;;;;4993289;28;20270;-30
2023/08/16 08:15:13;;;;;;;5.72;5.22;;;25.00;99.90;;;;;;4976820;28;20245;-30
2023/08/16 08:17:40;;;;;;;5.35;4.80;;;25.20;99.90;;;;;;4993513;28;20187;-30
2023/08/16 08:20:14;;;;;;;7.47;5.00;;;25.40;99.90;;;;;;4971203;28;20180;-30
2023/08/16 08:22:40;;;;;;;5.78;5.10;;;25.50;99.90;;;;;;4991895;28;20199;-29
2023/08/16 08:25:08;;;;;;;5.25;4.75;;;25.60;99.90;;;;;;4981237;28;20214;-30
2023/08/16 08:27:33;;;;;;;5.00;4.50;;;25.60;99.90;;;;;;4994786;28;20187;-30
2023/08/16 08:30:00;;;;;;;5.07;4.55;;;25.60;99.90;;;;;;4998489;28;20187;-29
2023/08/16 08:32:28;;;;;;;5.30;4.80;;;25.70;99.90;;;;;;4992397;28;20210;-30
2023/08/16 08:34:54;;;;;;;5.25;4.75;;;25.70;99.90;;;;;;4972234;28;20200;-30
2023/08/16 08:37:20;;;;;;;6.22;4.85;;;25.70;99.90;;;;;;5003801;28;20194;-29
2023/08/16 08:39:46;;;;;;;5.57;5.03;;;25.80;99.90;;;;;;4983893;28;20183;-29
2023/08/16 08:42:12;;;;;;;4.93;4.53;;;26.00;99.90;;;;;;4996903;28;20187;-30
2023/08/16 08:44:39;;;;;;;6.18;4.82;;;26.10;99.90;;;;;;4992691;28;20187;-29
2023/08/16 08:47:07;;;;;;;5.68;4.90;;;26.30;99.90;;;;;;4994488;28;20210;-30
2023/08/16 08:49:35;;;;;;;5.68;5.00;;;26.30;99.90;;;;;;4991065;28;20180;-30
2023/08/16 08:52:07;;;;;;;4.80;4.30;;;26.40;99.90;;;;;;4990135;28;20205;-28
2023/08/16 08:54:35;;;;;;;7.10;4.80;;;26.60;99.90;;;;;;4993904;28;20190;-30
2023/08/16 08:57:03;;;;;;;5.88;4.97;;;26.80;99.90;;;;;;4973284;28;20202;-30
2023/08/16 08:59:34;;;;;;;6.30;4.95;;;26.90;99.90;;;;;;4996511;28;20182;-31
2023/08/16 09:02:07;;;;;;;4.72;4.20;;;26.70;99.90;;;;;;4994556;28;20187;-31
2023/08/16 09:04:33;;;;;;;5.43;4.93;;;26.70;99.90;;;;;;4990292;28;20194;-30
2023/08/16 09:07:04;;;;;;;6.63;5.22;;;26.80;99.90;;;;;;4992352;28;20278;-30
2023/08/16 09:09:31;;;;;;;5.10;4.60;;;26.80;99.90;;;;;;4983682;28;20180;-31
2023/08/16 09:11:58;;;;;;;4.75;4.30;;;26.90;99.90;;;;;;5013963;28;20528;-30
2023/08/16 09:14:25;;;;;;;6.70;4.32;;;27.10;99.90;;;;;;4979114;28;20183;-30
2023/08/16 09:16:51;;;;;;;6.15;4.82;;;27.30;99.90;;;;;;4986468;28;20207;-30
2023/08/16 09:19:17;;;;;;;6.07;5.07;;;27.50;99.90;;;;;;4990799;28;20661;-30
2023/08/16 09:21:44;;;;;;;4.80;4.40;;;27.70;99.90;;;;;;4990586;28;20175;-30
2023/08/16 09:24:13;;;;;;;5.18;4.55;;;27.90;99.90;;;;;;4987936;28;20195;-29
2023/08/16 09:26:41;;;;;;;5.72;4.88;;;27.90;99.90;;;;;;4975335;23;20252;-87
2023/08/16 09:29:08;;;;;;;5.88;5.00;;;28.00;99.90;;;;;;4982782;28;20184;-86
2023/08/16 09:31:39;;;;;;;5.65;4.85;;;28.00;99.90;;;;;;4945737;28;20231;-86
2023/08/16 09:34:25;;;;;;;5.28;4.82;;;28.00;99.90;;;;;;4946499;29;20201;-87
2023/08/16 09:36:51;;;;;;;5.45;4.63;;;28.00;99.90;;;;;;4946061;29;20220;-87
2023/08/16 09:39:18;;;;;;;6.35;4.90;;;28.20;99.90;;;;;;4959248;28;20190;-88
2023/08/16 09:41:51;;;;;;;5.85;4.88;;;28.30;99.90;;;;;;4935788;28;20190;-88
2023/08/16 09:44:18;;;;;;;4.82;4.32;;;28.40;99.90;;;;;;4957128;28;20205;-88
2023/08/16 09:46:43;;;;;;;7.68;4.95;;;28.60;99.90;;;;;;4947114;29;20276;-89
2023/08/16 09:49:10;;;;;;;5.22;4.68;;;28.60;99.90;;;;;;4946408;28;20201;-88
2023/08/16 09:51:38;;;;;;;5.65;4.90;;;28.70;99.90;;;;;;4938935;29;20260;-89
2023/08/16 09:54:13;;;;;;;4.78;4.28;;;28.80;99.90;;;;;;4929822;29;20258;-89
2023/08/16 09:56:40;;;;;;;5.80;4.90;;;28.80;99.90;;;;;;4983614;23;20226;-40
2023/08/16 09:59:11;;;;;;;7.80;4.75;;;29.00;99.90;;;;;;4969239;28;20242;-40
2023/08/16 10:01:38;;;;;;;7.22;4.88;;;29.20;99.90;;;;;;4956158;28;20200;-40
2023/08/16 10:04:06;;;;;;;6.55;4.70;;;29.30;99.90;;;;;;4967908;28;20185;-40
2023/08/16 10:06:35;;;;;;;5.15;4.65;;;29.30;99.90;;;;;;4965075;28;20269;-40
2023/08/16 10:09:05;;;;;;;5.35;4.70;;;29.40;99.90;;;;;;4982021;28;20231;-40
2023/08/16 10:11:33;;;;;;;5.60;4.80;;;29.20;99.90;;;;;;4980306;28;20209;-40
2023/08/16 10:14:02;;;;;;;5.32;4.82;;;29.30;99.90;;;;;;4981407;28;20292;-41
2023/08/16 10:16:30;;;;;;;6.50;4.90;;;29.40;99.90;;;;;;4986149;28;20209;-40
2023/08/16 10:18:59;;;;;;;6.28;5.10;;;29.50;99.90;;;;;;4961097;28;20189;-39
2023/08/16 10:21:27;;;;;;;5.75;4.65;;;29.60;99.90;;;;;;4983077;28;20263;-41
2023/08/16 10:23:57;;;;;;;5.15;4.60;;;29.70;99.90;;;;;;4980827;28;20183;-40
2023/08/16 10:26:30;;;;;;;5.50;4.97;;;29.90;99.90;;;;;;4974781;28;20220;-40
2023/08/16 10:29:01;;;;;;;5.45;4.88;;;30.10;99.90;;;;;;4980565;28;20222;-40
2023/08/16 10:31:34;;;;;;;6.35;4.72;;;30.00;99.90;;;;;;4965805;28;20210;-41
2023/08/16 10:34:07;;;;;;;5.22;4.72;;;30.20;99.90;;;;;;4985181;28;20594;-41
2023/08/16 10:36:34;;;;;;;5.30;4.80;;;30.40;99.90;;;;;;4965116;28;20177;-40
2023/08/16 10:39:00;;;;;;;5.47;4.80;;;30.60;99.90;;;;;;4983213;28;20180;-40
2023/08/16 10:41:26;;;;;;;5.47;4.95;;;30.60;99.90;;;;;;4979875;28;20209;-40
2023/08/16 10:43:54;;;;;;;7.63;4.72;;;30.20;99.90;;;;;;4962881;28;20192;-40
2023/08/16 10:46:34;;;;;;;5.30;4.70;;;30.20;99.90;;;;;;4976357;28;20262;-40
2023/08/16 10:49:01;;;;;;;4.70;4.30;;;30.30;99.90;;;;;;4982498;28;20208;-40
2023/08/16 10:51:28;;;;;;;7.20;5.07;;;30.40;99.90;;;;;;4961284;28;20204;-41
2023/08/16 10:53:58;;;;;;;5.65;5.05;;;30.20;99.90;;;;;;4980905;28;20215;-41
2023/08/16 10:56:24;;;;;;;6.05;4.95;;;30.30;99.90;;;;;;4981399;28;20199;-41
2023/08/16 10:58:52;;;;;;;6.88;4.80;;;30.40;99.90;;;;;;4982983;28;20191;-40
2023/08/16 11:01:32;;;;;;;5.63;5.03;;;30.60;99.90;;;;;;4964723;28;20256;-37
2023/08/16 11:04:05;;;;;;;5.70;5.20;;;30.70;99.90;;;;;;4957945;28;20705;-41
2023/08/16 11:06:32;;;;;;;6.50;5.10;;;31.00;99.90;;;;;;4977115;28;20219;-40
2023/08/16 11:09:00;;;;;;;7.93;4.47;;;31.20;99.90;;;;;;4985731;28;20197;-38
2023/08/16 11:11:26;;;;;;;5.68;5.13;;;31.30;99.90;;;;;;4980940;28;20200;-40
2023/08/16 11:13:58;;;;;;;5.30;4.72;;;31.40;99.90;;;;;;4984420;28;20184;-40
2023/08/16 11:16:24;;;;;;;4.82;4.32;;;31.40;99.90;;;;;;4990047;28;20188;-40
2023/08/16 11:18:49;;;;;;;7.80;5.10;;;31.70;99.90;;;;;;4966028;28;20180;-41
2023/08/16 11:21:17;;;;;;;6.85;5.10;;;31.80;99.90;;;;;;4955577;28;20224;-40
2023/08/16 11:23:43;;;;;;;7.07;5.40;;;31.60;99.90;;;;;;4971902;28;20206;-40
2023/08/16 11:26:10;;;;;;;6.85;5.00;;;31.60;99.90;;;;;;4984454;28;20200;-41
2023/08/16 11:28:38;;;;;;;5.93;5.32;;;31.70;99.90;;;;;;4966988;28;20218;-38
2023/08/16 11:31:07;;;;;;;5.57;5.07;;;31.70;99.90;;;;;;4989826;28;20200;-41
2023/08/16 11:33:34;;;;;;;8.75;5.20;;;31.70;99.90;;;;;;4973635;28;20211;-40
2023/08/16 11:36:06;;;;;;;6.25;5.00;;;31.80;99.90;;;;;;4979854;28;20180;-40
2023/08/16 11:38:34;;;;;;;5.78;5.03;;;31.90;99.90;;;;;;4967023;28;20192;-41
2023/08/16 11:41:02;;;;;;;8.30;5.30;;;32.00;99.90;;;;;;4967234;28;20275;-41
2023/08/16 11:43:34;;;;;;;7.00;4.82;;;31.90;99.90;;;;;;4980624;28;20223;-40
2023/08/16 11:46:05;;;;;;;5.22;4.82;;;31.80;99.90;;;;;;4982560;28;20215;-40
2023/08/16 11:48:34;;;;;;;5.80;4.85;;;31.90;99.90;;;;;;4965604;28;20631;-40
2023/08/16 11:51:02;;;;;;;6.40;4.78;;;31.90;99.90;;;;;;4982034;28;20242;-41
2023/08/16 11:53:34;;;;;;;7.30;4.38;;;32.00;99.90;;;;;;4983090;28;20179;-40
2023/08/16 11:56:11;;;;;;;5.20;4.70;;;32.20;99.90;;;;;;4967032;28;20210;-39
2023/08/16 11:58:45;;;;;;;6.40;4.70;;;32.40;99.90;;;;;;4960575;28;20185;-40
2023/08/16 12:01:14;;;;;;;5.50;4.90;;;32.50;99.90;;;;;;4976349;28;20222;-40
2023/08/16 12:03:44;;;;;;;5.07;4.57;;;32.70;99.90;;;;;;4980468;28;20181;-40
2023/08/16 12:06:11;;;;;;;5.78;4.85;;;32.70;99.90;;;;;;4976501;28;20196;-41
2023/08/16 12:08:54;;;;;;;6.85;4.72;;;32.80;99.90;;;;;;4979066;28;20243;-41
2023/08/16 12:11:33;;;;;;;6.43;4.72;;;33.00;99.90;;;;;;4957458;28;20201;-40
2023/08/16 12:14:03;;;;;;;6.05;4.70;;;33.10;99.90;;;;;;4977874;28;20188;-41
2023/08/16 12:16:31;;;;;;;5.45;4.50;;;33.20;99.90;;;;;;4987264;28;20270;-40
2023/08/16 12:19:01;;;;;;;6.68;4.20;;;33.10;99.90;;;;;;4966652;28;20189;-40
2023/08/16 12:21:27;;;;;;;5.72;4.30;;;33.30;99.90;;;;;;4970957;28;20259;-40
2023/08/16 12:23:53;;;;;;;5.30;4.50;;;33.40;99.90;;;;;;4971620;28;20220;-41
2023/08/16 12:26:19;;;;;;;5.97;4.43;;;33.40;99.90;;;;;;4965166;28;20239;-40
2023/08/16 12:28:44;;;;;;;5.32;4.75;;;33.60;99.90;;;;;;4972788;28;20184;-41
2023/08/16 12:31:11;;;;;;;5.40;4.47;;;33.70;99.90;;;;;;4967028;28;20219;-40
2023/08/16 12:33:36;;;;;;;6.50;4.53;;;33.70;99.90;;;;;;4994032;28;20180;-41
2023/08/16 12:36:03;;;;;;;6.13;4.32;;;33.70;99.90;;;;;;4984783;28;20196;-40
2023/08/16 12:38:28;;;;;;;5.82;4.47;;;33.80;99.90;;;;;;4993612;28;20184;-41
2023/08/16 12:40:54;;;;;;;5.47;4.00;;;33.80;99.90;;;;;;4992601;28;20219;-39
2023/08/16 12:43:20;;;;;;;4.40;4.00;;;34.00;99.90;;;;;;4964673;28;20215;-40
2023/08/16 12:45:46;;;;;;;5.13;4.57;;;34.00;99.90;;;;;;4973003;28;20259;-39
2023/08/16 12:48:13;;;;;;;5.90;4.28;;;33.80;99.90;;;;;;4968021;28;20189;-41
2023/08/16 12:50:39;;;;;;;5.65;4.32;;;33.90;99.90;;;;;;4978879;28;20283;-40
2023/08/16 12:53:07;;;;;;;4.28;3.88;;;34.10;99.90;;;;;;4992501;28;20338;-40